Algoma, Wisconsin
Current Conditions -  °F | °C
As of 12:15 AM on Thursday 29 Jan 2015 (Local Time) from KSUE Reporting Station
Overcast Overcast  
Wind Chill: 23°   Ceiling: 3400
Heat Index: 32°   Visibility: 10mi
Dew Point: 25°   Wind: 12mph
Humidity: 75%   Direction: 180°S
Pressure: 29.84"   Gusts: 18mph
Location:  44.61°N, 87.43°W
Report Text: KSUE 290615Z AUTO 18010G16KT 10SM OVC034 00/M04 A2984 RMK AO1
Loading
Personal Weather Stations






























Interactive Weather Map New forecast layout! Learn more

10-Day Weather Forecast

Advertisements
Track Severe Weather on mobile